createdAt,value
2019-05-13T00:01:55.342Z,35.30
2019-05-13T00:04:27.168Z,35.30
2019-05-13T00:06:58.941Z,36.10
2019-05-13T00:09:30.862Z,35.50
2019-05-13T00:12:04.781Z,35.50
2019-05-13T00:14:36.162Z,35.60
2019-05-13T00:17:07.928Z,35.70
2019-05-13T00:19:39.629Z,35.70
2019-05-13T00:22:13.913Z,35.70
2019-05-13T00:24:45.134Z,35.80
2019-05-13T00:27:19.765Z,35.80
2019-05-13T00:29:53.436Z,35.80
2019-05-13T00:32:25.019Z,35.80
2019-05-13T00:34:56.785Z,35.80
2019-05-13T00:37:28.579Z,35.90
2019-05-13T00:40:00.407Z,36.00
2019-05-13T00:42:33.414Z,35.80
2019-05-13T00:45:06.001Z,36.30
2019-05-13T00:47:37.694Z,36.30
2019-05-13T00:50:13.921Z,36.30
2019-05-13T00:52:45.132Z,36.40
2019-05-13T00:55:16.870Z,36.00
2019-05-13T00:57:48.601Z,36.50
2019-05-13T01:00:20.535Z,36.60
2019-05-13T01:02:53.376Z,36.70
2019-05-13T01:05:25.164Z,36.60
2019-05-13T01:07:56.855Z,36.60
2019-05-13T01:10:28.711Z,36.80
2019-05-13T01:13:00.438Z,37.00
2019-05-13T01:15:34.259Z,37.60
2019-05-13T01:18:05.725Z,37.00
2019-05-13T01:20:37.372Z,37.10
2019-05-13T01:23:09.118Z,37.10
2019-05-13T01:25:40.812Z,37.20
2019-05-13T01:28:13.449Z,37.30
2019-05-13T01:30:45.476Z,37.30
2019-05-13T01:33:17.229Z,37.40
2019-05-13T01:35:48.891Z,37.50
2019-05-13T01:38:20.605Z,37.80
2019-05-13T01:40:53.923Z,37.60
2019-05-13T01:43:25.836Z,37.60
2019-05-13T01:45:57.505Z,37.70
2019-05-13T01:48:29.306Z,37.80
2019-05-13T01:51:00.972Z,38.00
2019-05-13T01:53:33.587Z,38.00
2019-05-13T01:56:05.511Z,38.00
2019-05-13T01:58:38.323Z,38.00
2019-05-13T02:01:10.250Z,38.50
2019-05-13T02:03:44.098Z,38.90
2019-05-13T02:06:15.293Z,38.40
2019-05-13T02:08:47.102Z,38.40
2019-05-13T02:11:18.808Z,38.60
2019-05-13T02:13:53.997Z,38.60
2019-05-13T02:16:25.982Z,38.70
2019-05-13T02:18:57.717Z,38.70
2019-05-13T02:21:30.702Z,38.90
2019-05-13T02:24:04.331Z,38.90
2019-05-13T02:26:35.815Z,39.10
2019-05-13T02:29:07.523Z,39.20
2019-05-13T02:31:46.604Z,39.20
2019-05-13T02:34:13.601Z,39.20
2019-05-13T02:36:45.690Z,39.20
2019-05-13T02:39:17.342Z,39.10
2019-05-13T02:41:52.024Z,39.60
2019-05-13T02:44:22.832Z,39.90
2019-05-13T02:46:54.494Z,40.60
2019-05-13T02:49:26.149Z,40.70
2019-05-13T02:51:57.889Z,40.90
2019-05-13T02:54:29.552Z,41.00
2019-05-13T02:57:03.851Z,41.00
2019-05-13T02:59:34.571Z,41.00
2019-05-13T03:02:06.260Z,40.80
2019-05-13T03:04:37.997Z,40.40
2019-05-13T03:07:12.028Z,41.40
2019-05-13T03:09:43.081Z,41.50
2019-05-13T03:12:14.844Z,41.40
2019-05-13T03:14:48.565Z,41.40
2019-05-13T03:17:32.679Z,41.50
2019-05-13T03:20:04.751Z,41.60
2019-05-13T03:22:36.432Z,41.50
2019-05-13T03:25:08.347Z,41.60
2019-05-13T03:27:42.852Z,41.80
2019-05-13T03:30:16.357Z,41.90
2019-05-13T03:32:55.189Z,41.90
2019-05-13T03:35:26.445Z,41.90
2019-05-13T03:37:55.876Z,42.00
2019-05-13T03:40:32.815Z,42.30
2019-05-13T03:43:03.258Z,42.30
2019-05-13T03:45:37.969Z,42.50
2019-05-13T03:48:12.082Z,42.60
2019-05-13T03:50:43.565Z,42.40
2019-05-13T03:53:15.416Z,42.60
2019-05-13T03:55:47.431Z,43.30
2019-05-13T03:58:23.905Z,42.80
2019-05-13T04:00:56.056Z,42.90
2019-05-13T04:03:27.862Z,42.70
2019-05-13T04:06:03.259Z,42.90
2019-05-13T04:08:34.714Z,43.00
2019-05-13T04:11:06.395Z,43.20
2019-05-13T04:13:38.204Z,43.10
2019-05-13T04:16:12.824Z,43.10
2019-05-13T04:18:43.640Z,43.00
2019-05-13T04:21:15.403Z,43.10
2019-05-13T04:23:47.154Z,43.40
2019-05-13T04:26:18.828Z,43.40
2019-05-13T04:28:52.573Z,43.60
2019-05-13T04:31:24.494Z,43.70
2019-05-13T04:33:56.197Z,43.70
2019-05-13T04:36:27.882Z,43.80
2019-05-13T04:39:03.004Z,43.70
2019-05-13T04:41:33.507Z,43.90
2019-05-13T04:44:05.310Z,44.00
2019-05-13T04:46:36.979Z,44.00
2019-05-13T04:49:08.760Z,43.90
2019-05-13T04:51:42.098Z,43.80
2019-05-13T04:54:14.636Z,43.80
2019-05-13T04:56:46.543Z,43.90
2019-05-13T04:59:18.455Z,44.00
2019-05-13T05:02:55.310Z,44.20
2019-05-13T05:06:03.493Z,44.20
2019-05-13T05:09:12.676Z,43.90
2019-05-13T05:12:57.938Z,43.80
2019-05-13T05:16:24.058Z,44.00
2019-05-13T05:19:48.312Z,44.00
2019-05-13T05:23:21.447Z,44.00
2019-05-13T05:27:06.666Z,43.90
2019-05-13T05:30:06.604Z,43.90
2019-05-13T05:33:41.240Z,44.10
2019-05-13T05:37:22.449Z,44.20
2019-05-13T05:39:58.200Z,43.20
2019-05-13T05:42:34.319Z,43.30
2019-05-13T05:45:07.049Z,43.40
2019-05-13T05:47:42.315Z,43.50
2019-05-13T05:50:14.614Z,43.60
2019-05-13T05:52:51.398Z,43.70
2019-05-13T05:55:25.244Z,43.70
2019-05-13T05:58:01.562Z,43.70
2019-05-13T06:00:35.650Z,43.60
2019-05-13T06:03:07.658Z,43.70
2019-05-13T06:05:41.847Z,43.70
2019-05-13T06:08:17.727Z,43.70
2019-05-13T06:10:52.870Z,43.80
2019-05-13T06:13:22.152Z,43.70
2019-05-13T06:15:53.885Z,43.70
2019-05-13T06:18:25.722Z,43.80
2019-05-13T06:20:57.578Z,43.80
2019-05-13T06:23:31.239Z,43.60
2019-05-13T06:26:08.184Z,43.70
2019-05-13T06:28:42.795Z,43.80
2019-05-13T06:31:21.532Z,43.90
2019-05-13T06:33:56.180Z,43.90
2019-05-13T06:36:31.447Z,43.90
2019-05-13T06:39:02.739Z,43.80
2019-05-13T06:41:34.459Z,43.80
2019-05-13T06:44:06.755Z,43.70
2019-05-13T06:46:38.596Z,43.70
2019-05-13T06:49:12.204Z,43.60
2019-05-13T06:51:43.854Z,43.50
2019-05-13T06:54:15.627Z,43.40
2019-05-13T06:56:51.586Z,43.40
2019-05-13T06:59:22.621Z,43.30
2019-05-13T07:01:55.793Z,43.40
2019-05-13T07:04:27.630Z,43.50
2019-05-13T07:07:10.089Z,43.60
2019-05-13T07:09:33.027Z,43.60
2019-05-13T07:12:04.771Z,43.50
2019-05-13T07:14:36.706Z,43.50
2019-05-13T07:17:12.108Z,43.30
2019-05-13T07:19:43.105Z,43.40
2019-05-13T07:22:14.930Z,43.30
2019-05-13T07:24:46.585Z,43.10
2019-05-13T07:27:18.277Z,43.00
2019-05-13T07:29:51.479Z,43.00
2019-05-13T07:32:23.580Z,42.90
2019-05-13T07:34:55.339Z,42.80
2019-05-13T07:37:28.687Z,42.80
2019-05-13T07:40:02.583Z,42.70
2019-05-13T07:42:35.570Z,42.70
2019-05-13T07:45:07.917Z,42.60
2019-05-13T07:47:41.913Z,42.40
2019-05-13T07:50:14.032Z,42.40
2019-05-13T07:52:45.750Z,42.30
2019-05-13T07:55:17.418Z,42.10
2019-05-13T07:57:51.388Z,42.20
2019-05-13T08:00:22.818Z,42.00
2019-05-13T08:02:54.638Z,41.90
2019-05-13T08:05:26.455Z,42.10
2019-05-13T08:07:58.357Z,41.90
2019-05-13T08:10:32.006Z,41.80
2019-05-13T08:13:03.525Z,41.70
2019-05-13T08:15:35.270Z,41.50
2019-05-13T08:18:07.116Z,41.40
2019-05-13T08:20:41.754Z,41.20
2019-05-13T08:23:12.445Z,40.90
2019-05-13T08:25:44.192Z,40.80
2019-05-13T08:28:15.904Z,40.90
2019-05-13T08:30:47.779Z,40.90
2019-05-13T08:33:19.464Z,40.90
2019-05-13T08:35:53.886Z,41.00
2019-05-13T08:38:24.781Z,41.00
2019-05-13T08:40:56.604Z,41.00
2019-05-13T08:43:28.307Z,41.00
2019-05-13T08:46:02.000Z,40.90
2019-05-13T08:48:33.937Z,41.30
2019-05-13T08:51:05.749Z,40.40
2019-05-13T08:53:37.527Z,40.10
2019-05-13T08:56:09.231Z,39.70
2019-05-13T08:58:41.361Z,39.50
2019-05-13T09:01:13.117Z,39.40
2019-05-13T09:03:45.795Z,39.40
2019-05-13T09:06:17.525Z,39.60
2019-05-13T09:08:54.052Z,39.30
2019-05-13T09:11:23.080Z,39.10
2019-05-13T09:13:54.817Z,38.80
2019-05-13T09:16:26.662Z,38.60
2019-05-13T09:18:58.451Z,38.40
2019-05-13T09:21:31.830Z,38.30
2019-05-13T09:24:20.714Z,38.30
2019-05-13T09:26:41.937Z,38.30
2019-05-13T09:29:12.697Z,38.20
2019-05-13T09:31:44.662Z,38.20
2019-05-13T09:34:16.366Z,38.40
2019-05-13T09:36:48.099Z,37.90
2019-05-13T09:39:21.672Z,38.10
2019-05-13T09:41:53.689Z,37.90
2019-05-13T09:44:25.534Z,37.50
2019-05-13T09:46:57.361Z,37.20
2019-05-13T09:49:29.214Z,37.30
2019-05-13T09:52:01.776Z,37.10
2019-05-13T09:54:33.721Z,36.70
2019-05-13T09:57:05.493Z,36.70
2019-05-13T09:59:37.248Z,36.40
2019-05-13T10:02:09.034Z,36.50
2019-05-13T10:04:43.631Z,36.70
2019-05-13T10:07:15.762Z,36.50
2019-05-13T10:09:48.374Z,37.20
2019-05-13T10:12:24.319Z,37.40
2019-05-13T10:14:55.437Z,37.80
2019-05-13T10:17:27.212Z,37.90
2019-05-13T10:19:59.923Z,38.40
2019-05-13T10:22:32.186Z,37.90
2019-05-13T10:25:04.504Z,38.00
2019-05-13T10:27:37.691Z,37.80
2019-05-13T10:30:11.909Z,37.50
2019-05-13T10:32:43.711Z,37.10
2019-05-13T10:35:16.078Z,36.70
2019-05-13T10:38:06.805Z,36.50
2019-05-13T10:40:38.570Z,36.60
2019-05-13T10:43:27.049Z,36.00
2019-05-13T10:45:43.938Z,35.00
2019-05-13T10:48:16.344Z,35.20
2019-05-13T10:50:48.352Z,34.60
2019-05-13T10:53:22.170Z,34.10
2019-05-13T10:55:54.359Z,33.70
2019-05-13T10:58:26.116Z,33.20
2019-05-13T11:00:57.968Z,33.00
2019-05-13T11:03:32.933Z,32.40
2019-05-13T11:06:03.334Z,31.40
2019-05-13T11:08:35.235Z,31.10
2019-05-13T11:11:07.570Z,30.70
2019-05-13T11:13:54.027Z,30.20
2019-05-13T11:16:13.349Z,30.10
2019-05-13T11:18:45.687Z,29.50
2019-05-13T11:21:18.128Z,29.40
2019-05-13T11:23:51.765Z,29.20
2019-05-13T11:26:26.247Z,29.00
2019-05-13T11:28:59.603Z,28.60
2019-05-13T11:31:32.836Z,28.10
2019-05-13T11:34:05.384Z,28.00
2019-05-13T11:36:37.685Z,27.40
2019-05-13T11:39:12.951Z,27.30
2019-05-13T11:41:44.268Z,27.20
2019-05-13T11:44:17.309Z,26.60
2019-05-13T11:46:52.371Z,25.90
2019-05-13T11:49:23.654Z,24.80
2019-05-13T11:51:56.067Z,25.10
2019-05-13T11:54:28.436Z,24.90
2019-05-13T11:57:05.790Z,24.70
2019-05-13T11:59:34.839Z,24.40
2019-05-13T12:02:08.770Z,23.80
2019-05-13T12:04:43.243Z,23.70
2019-05-13T12:07:15.901Z,23.30
2019-05-13T12:09:48.203Z,23.20
2019-05-13T12:12:23.500Z,23.00
2019-05-13T12:15:22.223Z,22.80
2019-05-13T12:17:34.017Z,22.40
2019-05-13T12:20:06.013Z,22.10
2019-05-13T12:22:38.332Z,21.90
2019-05-13T12:25:13.775Z,21.80
2019-05-13T12:27:45.225Z,21.70
2019-05-13T12:30:17.607Z,21.30
2019-05-13T12:32:51.898Z,21.10
2019-05-13T12:35:24.005Z,20.60
2019-05-13T12:37:56.263Z,20.90
2019-05-13T12:40:33.859Z,20.50
2019-05-13T12:43:03.922Z,20.00
2019-05-13T12:45:37.297Z,20.00
2019-05-13T12:48:13.662Z,19.50
2019-05-13T12:50:43.894Z,19.60
2019-05-13T12:53:17.881Z,19.50
2019-05-13T12:55:55.885Z,19.00
2019-05-13T12:58:27.391Z,19.10
2019-05-13T13:01:01.459Z,18.90
2019-05-13T13:03:34.701Z,18.70
2019-05-13T13:06:27.126Z,18.50
2019-05-13T13:08:48.564Z,18.50
2019-05-13T13:11:16.758Z,18.40
2019-05-13T13:14:09.548Z,18.20
2019-05-13T13:16:23.176Z,17.70
2019-05-13T13:18:55.654Z,17.50
2019-05-13T13:21:34.353Z,17.10
2019-05-13T13:24:04.697Z,16.90
2019-05-13T13:26:37.701Z,16.60
2019-05-13T13:29:11.787Z,16.60
2019-05-13T13:31:45.591Z,16.60
2019-05-13T13:34:18.706Z,16.60
2019-05-13T13:36:52.785Z,16.60
2019-05-13T13:39:25.726Z,16.50
2019-05-13T13:41:58.775Z,16.50
2019-05-13T13:44:35.139Z,16.50
2019-05-13T13:47:04.169Z,16.40
2019-05-13T13:49:36.035Z,16.60
2019-05-13T13:52:14.143Z,16.40
2019-05-13T13:54:44.242Z,16.60
2019-05-13T13:57:16.718Z,16.70
2019-05-13T14:00:19.283Z,16.80
2019-05-13T14:02:25.223Z,16.80
2019-05-13T14:05:05.662Z,16.90
2019-05-13T14:07:45.792Z,17.10
2019-05-13T14:10:18.798Z,17.10
2019-05-13T14:12:52.500Z,17.20
2019-05-13T14:15:24.194Z,17.10
2019-05-13T14:17:56.226Z,17.30
2019-05-13T14:20:28.001Z,17.30
2019-05-13T14:23:02.799Z,17.30
2019-05-13T14:25:35.477Z,17.20
2019-05-13T14:28:07.848Z,17.20
2019-05-13T14:30:42.031Z,17.30
2019-05-13T14:33:14.614Z,17.30
2019-05-13T14:35:46.580Z,17.50
2019-05-13T14:38:18.450Z,17.50
2019-05-13T14:40:51.905Z,17.60
2019-05-13T14:43:23.775Z,17.60
2019-05-13T14:45:55.559Z,17.60
2019-05-13T14:48:27.549Z,17.70
2019-05-13T14:51:02.103Z,17.70
2019-05-13T14:53:34.232Z,17.60
2019-05-13T14:56:06.023Z,17.30
2019-05-13T14:58:37.759Z,17.50
2019-05-13T15:01:15.858Z,17.50
2019-05-13T15:03:42.944Z,17.50
2019-05-13T15:06:14.674Z,17.50
2019-05-13T15:08:46.523Z,17.30
2019-05-13T15:11:18.303Z,17.50
2019-05-13T15:13:51.859Z,17.60
2019-05-13T15:16:23.650Z,17.60
2019-05-13T15:18:55.558Z,17.70
2019-05-13T15:21:32.115Z,17.70
2019-05-13T15:24:04.164Z,17.70
2019-05-13T15:26:38.327Z,17.70
2019-05-13T15:29:11.503Z,17.80
2019-05-13T15:31:43.482Z,17.90
2019-05-13T15:34:15.293Z,17.90
2019-05-13T15:36:50.953Z,18.00
2019-05-13T15:39:23.428Z,18.00
2019-05-13T15:41:55.324Z,18.10
2019-05-13T15:44:27.136Z,17.90
2019-05-13T15:47:02.244Z,17.80
2019-05-13T15:49:32.567Z,17.80
2019-05-13T15:52:04.378Z,17.80
2019-05-13T15:54:36.288Z,17.80
2019-05-13T15:57:08.038Z,17.90
2019-05-13T15:59:41.509Z,17.80
2019-05-13T16:02:13.709Z,17.80
2019-05-13T16:04:52.641Z,17.90
2019-05-13T16:07:19.065Z,18.00
2019-05-13T16:09:52.628Z,18.10
2019-05-13T16:12:24.659Z,17.90
2019-05-13T16:14:56.789Z,17.90
2019-05-13T16:17:38.787Z,17.90
2019-05-13T16:20:02.468Z,17.90
2019-05-13T16:22:34.214Z,18.10
2019-05-13T16:25:06.463Z,17.90
2019-05-13T16:27:38.308Z,18.00
2019-05-13T16:30:11.791Z,17.90
2019-05-13T16:33:15.313Z,18.00
2019-05-13T16:35:47.214Z,17.90
2019-05-13T16:38:18.956Z,18.00
2019-05-13T16:40:51.528Z,18.00
2019-05-13T16:43:23.546Z,18.10
2019-05-13T16:45:56.539Z,17.90
2019-05-13T16:48:28.281Z,18.10
2019-05-13T16:51:00.527Z,17.90
2019-05-13T16:53:32.341Z,17.90
2019-05-13T16:56:04.294Z,17.90
2019-05-13T16:58:36.213Z,17.90
2019-05-13T17:01:11.478Z,18.00
2019-05-13T17:03:43.951Z,17.90
2019-05-13T17:06:15.669Z,18.10
2019-05-13T17:08:47.432Z,18.10
2019-05-13T17:11:19.310Z,18.10
2019-05-13T17:13:51.503Z,18.10
2019-05-13T17:16:23.444Z,18.10
2019-05-13T17:19:02.970Z,18.00
2019-05-13T17:21:41.142Z,18.10
2019-05-13T17:24:12.933Z,18.10
2019-05-13T17:26:47.083Z,18.10
2019-05-13T17:29:22.284Z,18.20
2019-05-13T17:31:54.016Z,18.20
2019-05-13T17:34:28.743Z,18.30
2019-05-13T17:37:04.369Z,18.10
2019-05-13T17:39:41.508Z,18.20
2019-05-13T17:42:15.176Z,18.30
2019-05-13T17:44:47.094Z,18.30
2019-05-13T17:47:18.949Z,18.50
2019-05-13T17:49:53.909Z,18.60
2019-05-13T17:52:24.232Z,18.70
2019-05-13T17:54:56.240Z,18.90
2019-05-13T17:57:32.078Z,19.00
2019-05-13T18:00:06.757Z,19.10
2019-05-13T18:02:38.530Z,19.00
2019-05-13T18:05:12.308Z,19.10
2019-05-13T18:07:47.761Z,19.20
2019-05-13T18:10:22.390Z,19.20
2019-05-13T18:12:53.321Z,19.20
2019-05-13T18:15:26.161Z,19.20
2019-05-13T18:17:58.141Z,19.30
2019-05-13T18:20:33.423Z,19.30
2019-05-13T18:23:05.357Z,19.30
2019-05-13T18:25:37.078Z,19.30
2019-05-13T18:28:08.818Z,19.30
2019-05-13T18:30:41.057Z,19.30
2019-05-13T18:33:12.866Z,19.40
2019-05-13T18:35:44.709Z,19.40
2019-05-13T18:38:16.570Z,19.50
2019-05-13T18:40:48.449Z,20.00
2019-05-13T18:43:21.590Z,19.50
2019-05-13T18:45:53.554Z,19.40
2019-05-13T18:48:25.601Z,19.60
2019-05-13T18:50:57.454Z,19.70
2019-05-13T18:53:32.164Z,19.90
2019-05-13T18:56:04.108Z,19.80
2019-05-13T18:58:35.909Z,19.80
2019-05-13T19:01:07.715Z,19.80
2019-05-13T19:03:41.466Z,19.90
2019-05-13T19:06:14.894Z,20.00
2019-05-13T19:08:46.885Z,19.30
2019-05-13T19:11:18.713Z,20.10
2019-05-13T19:13:52.130Z,20.10
2019-05-13T19:16:24.153Z,20.40
2019-05-13T19:18:56.034Z,20.10
2019-05-13T19:21:27.789Z,20.20
2019-05-13T19:24:01.903Z,20.30
2019-05-13T19:26:33.205Z,20.20
2019-05-13T19:29:05.169Z,20.30
2019-05-13T19:31:38.153Z,20.30
2019-05-13T19:34:12.477Z,20.30
2019-05-13T19:36:44.715Z,20.40
2019-05-13T19:39:16.574Z,20.50
2019-05-13T19:41:48.459Z,20.60
2019-05-13T19:44:22.079Z,20.70
2019-05-13T19:46:54.128Z,20.60
2019-05-13T19:49:32.696Z,20.70
2019-05-13T19:52:01.883Z,20.80
2019-05-13T19:54:32.925Z,20.70
2019-05-13T19:57:06.360Z,20.80
2019-05-13T19:59:42.493Z,20.80
2019-05-13T20:02:13.540Z,20.80
2019-05-13T20:04:45.309Z,20.90
2019-05-13T20:07:17.125Z,21.00
2019-05-13T20:09:48.950Z,21.00
2019-05-13T20:12:21.279Z,21.00
2019-05-13T20:14:53.269Z,21.00
2019-05-13T20:17:25.391Z,21.00
2019-05-13T20:19:58.368Z,21.00
2019-05-13T20:22:31.305Z,21.10
2019-05-13T20:25:03.196Z,21.10
2019-05-13T20:27:35.113Z,21.10
2019-05-13T20:30:08.134Z,21.10
2019-05-13T20:32:39.917Z,21.20
2019-05-13T20:35:12.163Z,21.20
2019-05-13T20:37:43.936Z,21.30
2019-05-13T20:40:15.924Z,21.40
2019-05-13T20:42:47.919Z,21.40
2019-05-13T20:45:22.231Z,21.40
2019-05-13T20:47:53.373Z,21.60
2019-05-13T20:50:25.275Z,21.60
2019-05-13T20:52:57.116Z,21.60
2019-05-13T20:55:29.062Z,21.60
2019-05-13T20:58:01.485Z,21.60
2019-05-13T21:00:33.299Z,21.70
2019-05-13T21:03:05.076Z,21.90
2019-05-13T21:05:37.105Z,21.90
2019-05-13T21:08:08.946Z,21.90
2019-05-13T21:10:42.126Z,22.10
2019-05-13T21:13:14.511Z,22.00
2019-05-13T21:15:46.368Z,22.10
2019-05-13T21:18:18.137Z,22.10
2019-05-13T21:20:51.097Z,22.10
2019-05-13T21:23:23.449Z,22.20
2019-05-13T21:25:56.581Z,22.30
2019-05-13T21:28:28.282Z,22.30
2019-05-13T21:31:02.223Z,22.40
2019-05-13T21:33:33.698Z,22.60
2019-05-13T21:36:06.885Z,22.50
2019-05-13T21:38:38.650Z,22.60
2019-05-13T21:41:11.774Z,22.70
2019-05-13T21:43:43.671Z,22.80
2019-05-13T21:46:15.796Z,22.90
2019-05-13T21:48:47.592Z,22.90
2019-05-13T21:51:21.947Z,23.00
2019-05-13T21:53:53.085Z,23.20
2019-05-13T21:56:25.020Z,23.40
2019-05-13T21:58:56.851Z,23.40
2019-05-13T22:01:31.340Z,23.50
2019-05-13T22:04:02.163Z,23.60
2019-05-13T22:06:33.914Z,23.60
2019-05-13T22:09:11.753Z,23.70
2019-05-13T22:11:43.364Z,23.80
2019-05-13T22:14:15.158Z,23.90
2019-05-13T22:16:47.000Z,24.00
2019-05-13T22:19:18.759Z,24.10
2019-05-13T22:21:51.522Z,24.20
2019-05-13T22:24:23.817Z,24.30
2019-05-13T22:26:55.722Z,24.30
2019-05-13T22:29:27.481Z,24.50
2019-05-13T22:31:59.286Z,24.60
2019-05-13T22:34:31.964Z,24.80
2019-05-13T22:37:04.011Z,24.90
2019-05-13T22:39:35.699Z,24.90
2019-05-13T22:42:12.411Z,24.90
2019-05-13T22:44:43.672Z,25.00
2019-05-13T22:47:15.511Z,25.10
2019-05-13T22:49:48.373Z,25.20
2019-05-13T22:52:21.866Z,25.20
2019-05-13T22:54:55.524Z,25.40
2019-05-13T22:57:27.278Z,25.40
2019-05-13T22:59:58.972Z,25.40
2019-05-13T23:02:33.403Z,25.50
2019-05-13T23:05:04.385Z,25.60
2019-05-13T23:07:36.113Z,25.60
2019-05-13T23:10:08.382Z,25.70
2019-05-13T23:12:41.914Z,25.90
2019-05-13T23:15:13.774Z,26.00
2019-05-13T23:17:48.384Z,25.90
2019-05-13T23:20:21.095Z,26.00
2019-05-13T23:22:52.279Z,26.10
2019-05-13T23:25:23.957Z,26.10
2019-05-13T23:27:55.737Z,26.30
2019-05-13T23:30:27.447Z,26.40
2019-05-13T23:32:59.279Z,26.30
2019-05-13T23:35:32.243Z,26.50
2019-05-13T23:38:06.493Z,26.60
2019-05-13T23:40:38.289Z,26.60
2019-05-13T23:43:11.307Z,26.70
2019-05-13T23:45:43.184Z,26.80
2019-05-13T23:48:14.960Z,26.80
2019-05-13T23:50:46.729Z,26.90
2019-05-13T23:53:18.477Z,26.90
2019-05-13T23:55:51.991Z,27.10
2019-05-13T23:58:23.746Z,27.20
